sensor_id;sensor_type;location;lat;lon;timestamp;temperature;humidity
39849;DHT22;25518;47.878;15.914;2023-12-20T03:02:02;-1.80;99.90
39849;DHT22;25518;47.878;15.914;2023-12-20T03:04:53;-1.70;99.90
39849;DHT22;25518;47.878;15.914;2023-12-20T03:10:37;-1.70;99.90
39849;DHT22;25518;47.878;15.914;2023-12-20T03:13:29;-1.60;99.90
39849;DHT22;25518;47.878;15.914;2023-12-20T03:16:20;-1.70;99.90
39849;DHT22;25518;47.878;15.914;2023-12-20T03:19:11;-1.60;99.90
39849;DHT22;25518;47.878;15.914;2023-12-20T03:22:03;-1.60;99.90
39849;DHT22;25518;47.878;15.914;2023-12-20T03:24:54;-1.70;99.90
39849;DHT22;25518;47.878;15.914;2023-12-20T03:27:45;-1.60;99.90
39849;DHT22;25518;47.878;15.914;2023-12-20T03:30:36;-1.60;99.90
39849;DHT22;25518;47.878;15.914;2023-12-20T03:33:29;-1.50;99.90
39849;DHT22;25518;47.878;15.914;2023-12-20T03:36:20;-1.40;99.90
39849;DHT22;25518;47.878;15.914;2023-12-20T03:39:12;-1.40;99.90
39849;DHT22;25518;47.878;15.914;2023-12-20T03:42:03;-1.50;99.90
39849;DHT22;25518;47.878;15.914;2023-12-20T03:44:55;-1.50;99.90
39849;DHT22;25518;47.878;15.914;2023-12-20T03:47:46;-1.60;99.90
39849;DHT22;25518;47.878;15.914;2023-12-20T03:50:37;-1.70;99.90
39849;DHT22;25518;47.878;15.914;2023-12-20T03:53:28;-1.70;99.90
39849;DHT22;25518;47.878;15.914;2023-12-20T03:56:20;-1.60;99.90
39849;DHT22;25518;47.878;15.914;2023-12-20T03:59:11;-1.60;99.90
39849;DHT22;25518;47.878;15.914;2023-12-20T04:02:03;-1.60;99.90
39849;DHT22;25518;47.878;15.914;2023-12-20T04:04:55;-1.80;99.90
39849;DHT22;25518;47.878;15.914;2023-12-20T04:07:46;-1.80;99.90
39849;DHT22;25518;47.878;15.914;2023-12-20T04:10:37;-1.60;99.90
39849;DHT22;25518;47.878;15.914;2023-12-20T04:13:29;-1.80;99.90
39849;DHT22;25518;47.878;15.914;2023-12-20T04:16:20;-1.70;99.90
39849;DHT22;25518;47.878;15.914;2023-12-20T04:19:12;-1.60;99.90
39849;DHT22;25518;47.878;15.914;2023-12-20T04:22:03;-1.70;99.90
39849;DHT22;25518;47.878;15.914;2023-12-20T04:24:54;-1.60;99.90
39849;DHT22;25518;47.878;15.914;2023-12-20T04:27:46;-1.50;99.90
39849;DHT22;25518;47.878;15.914;2023-12-20T04:30:37;-1.40;99.90
39849;DHT22;25518;47.878;15.914;2023-12-20T04:33:28;-1.30;99.90
39849;DHT22;25518;47.878;15.914;2023-12-20T04:36:21;-1.20;99.90
39849;DHT22;25518;47.878;15.914;2023-12-20T04:39:13;-1.10;99.90
39849;DHT22;25518;47.878;15.914;2023-12-20T04:42:06;-1.10;99.90
39849;DHT22;25518;47.878;15.914;2023-12-20T04:44:57;-1.10;99.90
39849;DHT22;25518;47.878;15.914;2023-12-20T04:47:48;-1.10;99.90
39849;DHT22;25518;47.878;15.914;2023-12-20T04:50:40;-1.00;99.90
39849;DHT22;25518;47.878;15.914;2023-12-20T04:53:31;-1.00;99.90
39849;DHT22;25518;47.878;15.914;2023-12-20T04:56:22;-1.00;99.90
39849;DHT22;25518;47.878;15.914;2023-12-20T04:59:14;-1.00;99.90
39849;DHT22;25518;47.878;15.914;2023-12-20T05:02:06;-1.20;99.90
39849;DHT22;25518;47.878;15.914;2023-12-20T05:04:57;-1.00;99.90
39849;DHT22;25518;47.878;15.914;2023-12-20T05:07:48;-1.00;99.90
39849;DHT22;25518;47.878;15.914;2023-12-20T05:10:40;-0.80;99.90
39849;DHT22;25518;47.878;15.914;2023-12-20T05:13:31;-0.90;99.90
39849;DHT22;25518;47.878;15.914;2023-12-20T05:16:22;-0.80;99.90
39849;DHT22;25518;47.878;15.914;2023-12-20T05:19:14;-0.80;99.90
39849;DHT22;25518;47.878;15.914;2023-12-20T05:22:05;-0.70;99.90
39849;DHT22;25518;47.878;15.914;2023-12-20T05:24:56;-0.60;99.90
39849;DHT22;25518;47.878;15.914;2023-12-20T05:27:48;-0.70;99.90
39849;DHT22;25518;47.878;15.914;2023-12-20T05:30:39;-0.60;99.90
39849;DHT22;25518;47.878;15.914;2023-12-20T05:33:31;-0.60;99.90
39849;DHT22;25518;47.878;15.914;2023-12-20T05:36:22;-0.70;99.90
39849;DHT22;25518;47.878;15.914;2023-12-20T05:39:13;-0.70;99.90
39849;DHT22;25518;47.878;15.914;2023-12-20T05:42:05;-0.90;99.90
39849;DHT22;25518;47.878;15.914;2023-12-20T05:44:56;-1.00;99.90
39849;DHT22;25518;47.878;15.914;2023-12-20T05:47:47;2.70;99.90
39849;DHT22;25518;47.878;15.914;2023-12-20T05:50:39;-0.90;99.90
39849;DHT22;25518;47.878;15.914;2023-12-20T05:53:30;-0.90;99.90
39849;DHT22;25518;47.878;15.914;2023-12-20T05:56:21;-1.10;99.90
39849;DHT22;25518;47.878;15.914;2023-12-20T05:59:13;-1.20;99.90
39849;DHT22;25518;47.878;15.914;2023-12-20T06:02:05;-1.10;99.90
39849;DHT22;25518;47.878;15.914;2023-12-20T06:04:56;-1.10;99.90
39849;DHT22;25518;47.878;15.914;2023-12-20T06:07:48;-1.10;99.90
39849;DHT22;25518;47.878;15.914;2023-12-20T06:10:41;-1.10;99.90
39849;DHT22;25518;47.878;15.914;2023-12-20T06:13:33;-1.10;99.90
39849;DHT22;25518;47.878;15.914;2023-12-20T06:16:24;-1.20;99.90
39849;DHT22;25518;47.878;15.914;2023-12-20T06:19:15;-1.10;99.90
39849;DHT22;25518;47.878;15.914;2023-12-20T06:22:07;-1.10;99.90
39849;DHT22;25518;47.878;15.914;2023-12-20T06:24:58;-1.10;99.90
39849;DHT22;25518;47.878;15.914;2023-12-20T06:27:49;-0.70;99.90
39849;DHT22;25518;47.878;15.914;2023-12-20T06:30:41;-0.50;99.90
39849;DHT22;25518;47.878;15.914;2023-12-20T06:33:32;-0.50;99.90
39849;DHT22;25518;47.878;15.914;2023-12-20T06:36:24;-0.30;99.90
39849;DHT22;25518;47.878;15.914;2023-12-20T06:39:15;0.20;99.90
39849;DHT22;25518;47.878;15.914;2023-12-20T06:42:07;-0.30;99.90
39849;DHT22;25518;47.878;15.914;2023-12-20T06:44:58;0.70;99.90
39849;DHT22;25518;47.878;15.914;2023-12-20T06:47:49;1.20;99.90
39849;DHT22;25518;47.878;15.914;2023-12-20T06:50:41;1.50;99.90
39849;DHT22;25518;47.878;15.914;2023-12-20T06:53:32;1.80;99.90
39849;DHT22;25518;47.878;15.914;2023-12-20T06:56:23;2.60;99.90
39849;DHT22;25518;47.878;15.914;2023-12-20T06:59:15;3.00;99.90
39849;DHT22;25518;47.878;15.914;2023-12-20T07:02:08;3.20;99.90
39849;DHT22;25518;47.878;15.914;2023-12-20T07:04:59;3.50;99.90
39849;DHT22;25518;47.878;15.914;2023-12-20T07:07:51;4.40;99.90
39849;DHT22;25518;47.878;15.914;2023-12-20T07:10:42;4.50;99.90
39849;DHT22;25518;47.878;15.914;2023-12-20T07:13:33;4.80;99.90
39849;DHT22;25518;47.878;15.914;2023-12-20T07:16:25;4.90;99.90
39849;DHT22;25518;47.878;15.914;2023-12-20T07:19:16;5.10;99.90
39849;DHT22;25518;47.878;15.914;2023-12-20T07:22:08;5.20;99.90
39849;DHT22;25518;47.878;15.914;2023-12-20T07:25:00;5.30;99.90
39849;DHT22;25518;47.878;15.914;2023-12-20T07:27:51;5.40;99.90
39849;DHT22;25518;47.878;15.914;2023-12-20T07:30:43;5.10;99.90
39849;DHT22;25518;47.878;15.914;2023-12-20T07:33:34;5.20;99.90
39849;DHT22;25518;47.878;15.914;2023-12-20T07:36:25;5.30;99.90
39849;DHT22;25518;47.878;15.914;2023-12-20T07:39:17;5.30;99.90
39849;DHT22;25518;47.878;15.914;2023-12-20T07:42:10;5.30;99.90
39849;DHT22;25518;47.878;15.914;2023-12-20T07:45:02;5.20;99.90
39849;DHT22;25518;47.878;15.914;2023-12-20T07:47:53;5.10;99.90
39849;DHT22;25518;47.878;15.914;2023-12-20T07:50:45;5.10;99.90
39849;DHT22;25518;47.878;15.914;2023-12-20T07:53:36;5.40;99.90
39849;DHT22;25518;47.878;15.914;2023-12-20T07:56:28;5.30;99.90
39849;DHT22;25518;47.878;15.914;2023-12-20T07:59:19;5.70;99.90
39849;DHT22;25518;47.878;15.914;2023-12-20T08:02:11;5.50;99.90
39849;DHT22;25518;47.878;15.914;2023-12-20T08:05:02;5.40;99.90
39849;DHT22;25518;47.878;15.914;2023-12-20T08:07:54;5.80;99.90
39849;DHT22;25518;47.878;15.914;2023-12-20T08:10:45;5.90;99.90
39849;DHT22;25518;47.878;15.914;2023-12-20T08:13:36;6.20;99.90
39849;DHT22;25518;47.878;15.914;2023-12-20T08:16:28;6.20;99.90
39849;DHT22;25518;47.878;15.914;2023-12-20T08:19:19;6.20;99.90
39849;DHT22;25518;47.878;15.914;2023-12-20T08:22:11;6.20;99.90
39849;DHT22;25518;47.878;15.914;2023-12-20T08:25:02;5.90;99.90
39849;DHT22;25518;47.878;15.914;2023-12-20T08:27:54;5.80;99.90
39849;DHT22;25518;47.878;15.914;2023-12-20T08:30:45;5.60;99.90
39849;DHT22;25518;47.878;15.914;2023-12-20T08:33:36;5.60;99.90
39849;DHT22;25518;47.878;15.914;2023-12-20T08:36:28;3.30;99.90
39849;DHT22;25518;47.878;15.914;2023-12-20T08:39:19;5.80;99.90
39849;DHT22;25518;47.878;15.914;2023-12-20T08:42:11;6.00;99.90
39849;DHT22;25518;47.878;15.914;2023-12-20T08:45:02;5.50;99.90
39849;DHT22;25518;47.878;15.914;2023-12-20T08:47:55;6.50;99.90
39849;DHT22;25518;47.878;15.914;2023-12-20T08:50:46;6.40;99.90
39849;DHT22;25518;47.878;15.914;2023-12-20T08:53:40;6.40;99.90
39849;DHT22;25518;47.878;15.914;2023-12-20T08:56:31;6.60;99.90
39849;DHT22;25518;47.878;15.914;2023-12-20T08:59:22;6.70;99.90
39849;DHT22;25518;47.878;15.914;2023-12-20T09:02:14;6.40;99.90
39849;DHT22;25518;47.878;15.914;2023-12-20T09:05:06;6.30;99.90
39849;DHT22;25518;47.878;15.914;2023-12-20T09:07:58;6.20;99.90
39849;DHT22;25518;47.878;15.914;2023-12-20T09:10:49;5.80;99.90
39849;DHT22;25518;47.878;15.914;2023-12-20T09:13:40;6.10;99.90
39849;DHT22;25518;47.878;15.914;2023-12-20T09:16:32;6.00;99.90
39849;DHT22;25518;47.878;15.914;2023-12-20T09:19:23;6.10;99.90
39849;DHT22;25518;47.878;15.914;2023-12-20T09:22:15;6.10;99.90
39849;DHT22;25518;47.878;15.914;2023-12-20T09:25:06;6.20;99.90
39849;DHT22;25518;47.878;15.914;2023-12-20T09:27:58;6.30;99.90
39849;DHT22;25518;47.878;15.914;2023-12-20T09:30:49;6.40;99.90
39849;DHT22;25518;47.878;15.914;2023-12-20T09:33:41;6.40;99.90
39849;DHT22;25518;47.878;15.914;2023-12-20T09:36:32;6.30;99.90
39849;DHT22;25518;47.878;15.914;2023-12-20T09:39:27;6.30;99.90
39849;DHT22;25518;47.878;15.914;2023-12-20T09:42:29;6.30;99.90
39849;DHT22;25518;47.878;15.914;2023-12-20T09:45:21;6.40;99.90
39849;DHT22;25518;47.878;15.914;2023-12-20T09:48:13;6.70;99.90
39849;DHT22;25518;47.878;15.914;2023-12-20T09:51:06;6.60;99.90
39849;DHT22;25518;47.878;15.914;2023-12-20T09:53:59;6.50;99.90
39849;DHT22;25518;47.878;15.914;2023-12-20T09:56:51;6.60;99.90
39849;DHT22;25518;47.878;15.914;2023-12-20T09:59:42;6.50;99.90
39849;DHT22;25518;47.878;15.914;2023-12-20T10:02:34;6.40;99.90
39849;DHT22;25518;47.878;15.914;2023-12-20T10:05:29;6.40;99.90
39849;DHT22;25518;47.878;15.914;2023-12-20T10:08:21;6.30;99.90
39849;DHT22;25518;47.878;15.914;2023-12-20T10:11:13;6.30;99.90
39849;DHT22;25518;47.878;15.914;2023-12-20T10:14:07;6.10;99.90
39849;DHT22;25518;47.878;15.914;2023-12-20T10:17:03;6.20;99.90
39849;DHT22;25518;47.878;15.914;2023-12-20T10:19:54;6.20;99.90
39849;DHT22;25518;47.878;15.914;2023-12-20T10:22:46;6.00;99.90
39849;DHT22;25518;47.878;15.914;2023-12-20T10:25:39;6.00;99.90
39849;DHT22;25518;47.878;15.914;2023-12-20T10:28:34;5.90;99.90
39849;DHT22;25518;47.878;15.914;2023-12-20T10:31:27;5.90;99.90
39849;DHT22;25518;47.878;15.914;2023-12-20T10:34:19;6.00;99.90
39849;DHT22;25518;47.878;15.914;2023-12-20T10:37:10;5.90;99.90
39849;DHT22;25518;47.878;15.914;2023-12-20T10:40:04;5.80;99.90
39849;DHT22;25518;47.878;15.914;2023-12-20T10:42:59;5.70;99.90
39849;DHT22;25518;47.878;15.914;2023-12-20T10:45:52;5.80;99.90
39849;DHT22;25518;47.878;15.914;2023-12-20T10:48:44;5.80;99.90
39849;DHT22;25518;47.878;15.914;2023-12-20T10:51:38;5.80;99.90
39849;DHT22;25518;47.878;15.914;2023-12-20T10:54:29;5.80;99.90
39849;DHT22;25518;47.878;15.914;2023-12-20T10:57:22;5.80;99.90
39849;DHT22;25518;47.878;15.914;2023-12-20T11:00:14;5.70;99.90
39849;DHT22;25518;47.878;15.914;2023-12-20T11:03:09;5.70;99.90
39849;DHT22;25518;47.878;15.914;2023-12-20T11:06:13;5.70;99.90
39849;DHT22;25518;47.878;15.914;2023-12-20T11:09:22;5.80;99.90
39849;DHT22;25518;47.878;15.914;2023-12-20T11:15:36;5.90;99.90
39849;DHT22;25518;47.878;15.914;2023-12-20T11:18:29;5.90;99.90
39849;DHT22;25518;47.878;15.914;2023-12-20T11:21:21;5.90;99.90
39849;DHT22;25518;47.878;15.914;2023-12-20T11:24:13;5.90;99.90
39849;DHT22;25518;47.878;15.914;2023-12-20T11:27:04;6.00;99.90
39849;DHT22;25518;47.878;15.914;2023-12-20T11:29:57;5.90;99.90
39849;DHT22;25518;47.878;15.914;2023-12-20T11:32:49;6.00;99.90
39849;DHT22;25518;47.878;15.914;2023-12-20T11:35:40;6.00;99.90
39849;DHT22;25518;47.878;15.914;2023-12-20T11:38:57;6.00;99.90
39849;DHT22;25518;47.878;15.914;2023-12-20T11:41:49;6.00;99.90
39849;DHT22;25518;47.878;15.914;2023-12-20T11:44:42;5.90;99.90
39849;DHT22;25518;47.878;15.914;2023-12-20T11:47:34;5.70;99.90
39849;DHT22;25518;47.878;15.914;2023-12-20T11:50:26;5.90;99.90
39849;DHT22;25518;47.878;15.914;2023-12-20T11:53:17;5.70;99.90
39849;DHT22;25518;47.878;15.914;2023-12-20T11:56:10;5.90;99.90
39849;DHT22;25518;47.878;15.914;2023-12-20T11:59:03;5.90;99.90
39849;DHT22;25518;47.878;15.914;2023-12-20T12:01:54;5.90;99.90
39849;DHT22;25518;47.878;15.914;2023-12-20T12:04:51;6.00;99.90
39849;DHT22;25518;47.878;15.914;2023-12-20T12:07:42;6.00;99.90
39849;DHT22;25518;47.878;15.914;2023-12-20T12:10:34;6.10;99.90
39849;DHT22;25518;47.878;15.914;2023-12-20T12:13:25;6.10;99.90
39849;DHT22;25518;47.878;15.914;2023-12-20T12:16:20;6.10;99.90
39849;DHT22;25518;47.878;15.914;2023-12-20T12:19:27;6.20;99.90
39849;DHT22;25518;47.878;15.914;2023-12-20T12:22:20;6.30;99.90
39849;DHT22;25518;47.878;15.914;2023-12-20T12:25:16;6.40;99.90
39849;DHT22;25518;47.878;15.914;2023-12-20T12:28:08;6.40;99.90
39849;DHT22;25518;47.878;15.914;2023-12-20T12:30:59;6.30;99.90
39849;DHT22;25518;47.878;15.914;2023-12-20T12:33:51;6.30;99.90
39849;DHT22;25518;47.878;15.914;2023-12-20T12:36:42;6.40;99.90
39849;DHT22;25518;47.878;15.914;2023-12-20T12:39:34;6.30;99.90
39849;DHT22;25518;47.878;15.914;2023-12-20T12:42:25;6.20;99.90
39849;DHT22;25518;47.878;15.914;2023-12-20T12:45:19;6.10;99.90
39849;DHT22;25518;47.878;15.914;2023-12-20T12:48:11;6.10;99.90
39849;DHT22;25518;47.878;15.914;2023-12-20T12:51:02;6.00;99.90
39849;DHT22;25518;47.878;15.914;2023-12-20T12:53:54;5.90;99.90
39849;DHT22;25518;47.878;15.914;2023-12-20T12:56:45;5.90;99.90
39849;DHT22;25518;47.878;15.914;2023-12-20T12:59:38;5.90;99.90
39849;DHT22;25518;47.878;15.914;2023-12-20T13:02:30;5.80;99.90
39849;DHT22;25518;47.878;15.914;2023-12-20T13:05:21;5.80;99.90
39849;DHT22;25518;47.878;15.914;2023-12-20T13:08:14;5.80;99.90
39849;DHT22;25518;47.878;15.914;2023-12-20T13:11:05;5.50;99.90
39849;DHT22;25518;47.878;15.914;2023-12-20T13:13:57;5.40;99.90
39849;DHT22;25518;47.878;15.914;2023-12-20T13:16:48;5.40;99.90
39849;DHT22;25518;47.878;15.914;2023-12-20T13:19:40;5.40;99.90
39849;DHT22;25518;47.878;15.914;2023-12-20T13:22:32;5.40;99.90
39849;DHT22;25518;47.878;15.914;2023-12-20T13:25:23;5.40;99.90
39849;DHT22;25518;47.878;15.914;2023-12-20T13:28:14;5.30;99.90
39849;DHT22;25518;47.878;15.914;2023-12-20T13:31:06;4.50;99.90
39849;DHT22;25518;47.878;15.914;2023-12-20T13:33:57;5.30;99.90
39849;DHT22;25518;47.878;15.914;2023-12-20T13:36:48;5.20;99.90
39849;DHT22;25518;47.878;15.914;2023-12-20T13:39:41;5.20;99.90
39849;DHT22;25518;47.878;15.914;2023-12-20T13:42:33;5.10;99.90
39849;DHT22;25518;47.878;15.914;2023-12-20T13:45:24;5.20;99.90
39849;DHT22;25518;47.878;15.914;2023-12-20T13:48:16;5.10;99.90
39849;DHT22;25518;47.878;15.914;2023-12-20T13:51:07;5.10;99.90
39849;DHT22;25518;47.878;15.914;2023-12-20T13:53:59;5.10;99.90
39849;DHT22;25518;47.878;15.914;2023-12-20T13:56:50;5.10;99.90
39849;DHT22;25518;47.878;15.914;2023-12-20T13:59:42;5.00;99.90
39849;DHT22;25518;47.878;15.914;2023-12-20T14:02:33;4.30;99.90
39849;DHT22;25518;47.878;15.914;2023-12-20T14:05:24;4.90;99.90
39849;DHT22;25518;47.878;15.914;2023-12-20T14:08:17;4.90;99.90
39849;DHT22;25518;47.878;15.914;2023-12-20T14:11:09;4.80;99.90
39849;DHT22;25518;47.878;15.914;2023-12-20T14:14:01;4.80;99.90
39849;DHT22;25518;47.878;15.914;2023-12-20T14:16:53;4.80;99.90
39849;DHT22;25518;47.878;15.914;2023-12-20T14:19:44;4.80;99.90
39849;DHT22;25518;47.878;15.914;2023-12-20T14:22:35;4.70;99.90
39849;DHT22;25518;47.878;15.914;2023-12-20T14:25:28;4.70;99.90
39849;DHT22;25518;47.878;15.914;2023-12-20T14:28:19;4.60;99.90
39849;DHT22;25518;47.878;15.914;2023-12-20T14:31:11;4.50;99.90
39849;DHT22;25518;47.878;15.914;2023-12-20T14:34:02;4.50;99.90
39849;DHT22;25518;47.878;15.914;2023-12-20T14:36:55;4.50;99.90
39849;DHT22;25518;47.878;15.914;2023-12-20T14:39:46;4.40;99.90
39849;DHT22;25518;47.878;15.914;2023-12-20T14:42:37;4.50;99.90
39849;DHT22;25518;47.878;15.914;2023-12-20T14:45:29;4.40;99.90
39849;DHT22;25518;47.878;15.914;2023-12-20T14:48:20;4.50;99.90
39849;DHT22;25518;47.878;15.914;2023-12-20T14:51:12;4.40;99.90
39849;DHT22;25518;47.878;15.914;2023-12-20T14:54:04;4.40;99.90
39849;DHT22;25518;47.878;15.914;2023-12-20T14:56:58;4.40;99.90
39849;DHT22;25518;47.878;15.914;2023-12-20T14:59:50;4.50;99.90
39849;DHT22;25518;47.878;15.914;2023-12-20T15:02:42;4.40;99.90
39849;DHT22;25518;47.878;15.914;2023-12-20T15:05:34;4.60;99.90
39849;DHT22;25518;47.878;15.914;2023-12-20T15:08:27;4.50;99.90
39849;DHT22;25518;47.878;15.914;2023-12-20T15:11:18;4.50;99.90
39849;DHT22;25518;47.878;15.914;2023-12-20T15:14:09;4.50;99.90
39849;DHT22;25518;47.878;15.914;2023-12-20T15:17:01;4.20;99.90
39849;DHT22;25518;47.878;15.914;2023-12-20T15:19:52;4.70;99.90
39849;DHT22;25518;47.878;15.914;2023-12-20T15:22:44;4.90;99.90
39849;DHT22;25518;47.878;15.914;2023-12-20T15:25:36;4.90;99.90
39849;DHT22;25518;47.878;15.914;2023-12-20T15:28:29;4.90;99.90
39849;DHT22;25518;47.878;15.914;2023-12-20T15:31:20;4.90;99.90
39849;DHT22;25518;47.878;15.914;2023-12-20T15:34:17;5.00;99.90
39849;DHT22;25518;47.878;15.914;2023-12-20T15:37:08;5.10;99.90
39849;DHT22;25518;47.878;15.914;2023-12-20T15:40:00;5.10;99.90
39849;DHT22;25518;47.878;15.914;2023-12-20T15:42:51;4.80;99.90
39849;DHT22;25518;47.878;15.914;2023-12-20T15:45:42;5.10;99.90
39849;DHT22;25518;47.878;15.914;2023-12-20T15:48:34;5.10;99.90
39849;DHT22;25518;47.878;15.914;2023-12-20T15:51:25;5.20;99.90
39849;DHT22;25518;47.878;15.914;2023-12-20T15:54:17;5.20;99.90
39849;DHT22;25518;47.878;15.914;2023-12-20T15:57:08;5.10;99.90
39849;DHT22;25518;47.878;15.914;2023-12-20T16:00:01;5.10;99.90
39849;DHT22;25518;47.878;15.914;2023-12-20T16:02:52;4.90;99.90
39849;DHT22;25518;47.878;15.914;2023-12-20T16:05:43;5.10;99.90
39849;DHT22;25518;47.878;15.914;2023-12-20T16:08:35;5.00;99.90
39849;DHT22;25518;47.878;15.914;2023-12-20T16:11:26;5.10;99.90
39849;DHT22;25518;47.878;15.914;2023-12-20T16:14:17;5.10;99.90
39849;DHT22;25518;47.878;15.914;2023-12-20T16:17:10;5.10;99.90
39849;DHT22;25518;47.878;15.914;2023-12-20T16:20:03;5.10;99.90
39849;DHT22;25518;47.878;15.914;2023-12-20T16:22:55;5.30;99.90
39849;DHT22;25518;47.878;15.914;2023-12-20T16:25:46;5.40;99.90
39849;DHT22;25518;47.878;15.914;2023-12-20T16:28:38;5.20;99.90
39849;DHT22;25518;47.878;15.914;2023-12-20T16:31:29;5.20;99.90
39849;DHT22;25518;47.878;15.914;2023-12-20T16:34:20;4.50;99.90
39849;DHT22;25518;47.878;15.914;2023-12-20T16:37:12;5.40;99.90
39849;DHT22;25518;47.878;15.914;2023-12-20T16:40:05;5.30;99.90
39849;DHT22;25518;47.878;15.914;2023-12-20T16:42:57;5.30;99.90
39849;DHT22;25518;47.878;15.914;2023-12-20T16:45:48;5.20;99.90
39849;DHT22;25518;47.878;15.914;2023-12-20T16:48:39;5.00;99.90
39849;DHT22;25518;47.878;15.914;2023-12-20T16:51:31;5.10;99.90
39849;DHT22;25518;47.878;15.914;2023-12-20T16:54:22;5.10;99.90
39849;DHT22;25518;47.878;15.914;2023-12-20T16:57:14;5.20;99.90
39849;DHT22;25518;47.878;15.914;2023-12-20T17:00:06;4.90;99.90
39849;DHT22;25518;47.878;15.914;2023-12-20T17:02:58;4.90;99.90
39849;DHT22;25518;47.878;15.914;2023-12-20T17:05:49;4.90;99.90
39849;DHT22;25518;47.878;15.914;2023-12-20T17:08:40;4.70;99.90
39849;DHT22;25518;47.878;15.914;2023-12-20T17:11:33;4.80;99.90
39849;DHT22;25518;47.878;15.914;2023-12-20T17:14:25;4.80;99.90
39849;DHT22;25518;47.878;15.914;2023-12-20T17:17:16;4.90;99.90
39849;DHT22;25518;47.878;15.914;2023-12-20T17:20:08;4.80;99.90
39849;DHT22;25518;47.878;15.914;2023-12-20T17:22:59;4.80;99.90
39849;DHT22;25518;47.878;15.914;2023-12-20T17:25:51;3.30;99.90
39849;DHT22;25518;47.878;15.914;2023-12-20T17:28:42;4.90;99.90
39849;DHT22;25518;47.878;15.914;2023-12-20T17:31:33;4.90;99.90
39849;DHT22;25518;47.878;15.914;2023-12-20T17:34:26;4.90;99.90
39849;DHT22;25518;47.878;15.914;2023-12-20T17:37:17;4.90;99.90
39849;DHT22;25518;47.878;15.914;2023-12-20T17:40:09;4.80;99.90
39849;DHT22;25518;47.878;15.914;2023-12-20T17:43:00;4.90;99.90
39849;DHT22;25518;47.878;15.914;2023-12-20T17:45:52;4.80;99.90
39849;DHT22;25518;47.878;15.914;2023-12-20T17:48:43;4.70;99.90
39849;DHT22;25518;47.878;15.914;2023-12-20T17:51:34;4.70;99.90
39849;DHT22;25518;47.878;15.914;2023-12-20T17:54:26;4.70;99.90
39849;DHT22;25518;47.878;15.914;2023-12-20T17:57:20;4.70;99.90
39849;DHT22;25518;47.878;15.914;2023-12-20T18:00:26;4.80;99.90
39849;DHT22;25518;47.878;15.914;2023-12-20T18:03:18;4.10;99.90
39849;DHT22;25518;47.878;15.914;2023-12-20T18:06:10;4.70;99.90
39849;DHT22;25518;47.878;15.914;2023-12-20T18:09:02;4.70;99.90
39849;DHT22;25518;47.878;15.914;2023-12-20T18:11:54;3.30;99.90
39849;DHT22;25518;47.878;15.914;2023-12-20T18:14:47;4.70;99.90
39849;DHT22;25518;47.878;15.914;2023-12-20T18:17:40;4.70;99.90
39849;DHT22;25518;47.878;15.914;2023-12-20T18:20:32;4.60;99.90
39849;DHT22;25518;47.878;15.914;2023-12-20T18:23:23;4.60;99.90
39849;DHT22;25518;47.878;15.914;2023-12-20T18:26:15;4.50;99.90
39849;DHT22;25518;47.878;15.914;2023-12-20T18:29:06;4.70;99.90
39849;DHT22;25518;47.878;15.914;2023-12-20T18:31:57;4.60;99.90
39849;DHT22;25518;47.878;15.914;2023-12-20T18:34:49;4.70;99.90
39849;DHT22;25518;47.878;15.914;2023-12-20T18:37:40;4.70;99.90
39849;DHT22;25518;47.878;15.914;2023-12-20T18:40:32;4.60;99.90
39849;DHT22;25518;47.878;15.914;2023-12-20T18:43:23;4.60;99.90
39849;DHT22;25518;47.878;15.914;2023-12-20T18:46:16;4.50;99.90
39849;DHT22;25518;47.878;15.914;2023-12-20T18:49:08;4.50;99.90
39849;DHT22;25518;47.878;15.914;2023-12-20T18:51:59;4.50;99.90
39849;DHT22;25518;47.878;15.914;2023-12-20T18:54:53;4.70;99.90
39849;DHT22;25518;47.878;15.914;2023-12-20T18:57:45;4.70;99.90
39849;DHT22;25518;47.878;15.914;2023-12-20T19:00:37;4.70;99.90
39849;DHT22;25518;47.878;15.914;2023-12-20T19:03:29;4.70;99.90
39849;DHT22;25518;47.878;15.914;2023-12-20T19:06:20;4.70;99.90
39849;DHT22;25518;47.878;15.914;2023-12-20T19:09:11;4.70;99.90
39849;DHT22;25518;47.878;15.914;2023-12-20T19:12:03;4.70;99.90
39849;DHT22;25518;47.878;15.914;2023-12-20T19:14:54;4.80;99.90
39849;DHT22;25518;47.878;15.914;2023-12-20T19:17:47;4.60;99.90
39849;DHT22;25518;47.878;15.914;2023-12-20T19:20:38;4.70;99.90
39849;DHT22;25518;47.878;15.914;2023-12-20T19:23:30;4.80;99.90
39849;DHT22;25518;47.878;15.914;2023-12-20T19:26:21;4.70;99.90
39849;DHT22;25518;47.878;15.914;2023-12-20T19:29:12;4.70;99.90
39849;DHT22;25518;47.878;15.914;2023-12-20T19:32:06;2.10;99.90
39849;DHT22;25518;47.878;15.914;2023-12-20T19:34:59;4.70;99.90
39849;DHT22;25518;47.878;15.914;2023-12-20T19:37:51;4.70;99.90
39849;DHT22;25518;47.878;15.914;2023-12-20T19:40:42;4.40;99.90
39849;DHT22;25518;47.878;15.914;2023-12-20T19:43:34;3.90;99.90
39849;DHT22;25518;47.878;15.914;2023-12-20T19:46:25;4.70;99.90
39849;DHT22;25518;47.878;15.914;2023-12-20T19:49:16;4.70;99.90
39849;DHT22;25518;47.878;15.914;2023-12-20T19:52:08;4.40;99.90
39849;DHT22;25518;47.878;15.914;2023-12-20T19:54:59;4.30;99.90
39849;DHT22;25518;47.878;15.914;2023-12-20T19:57:51;4.50;99.90
39849;DHT22;25518;47.878;15.914;2023-12-20T20:00:44;4.60;99.90
39849;DHT22;25518;47.878;15.914;2023-12-20T20:03:36;4.60;99.90
39849;DHT22;25518;47.878;15.914;2023-12-20T20:06:27;4.50;99.90
39849;DHT22;25518;47.878;15.914;2023-12-20T20:09:19;4.50;99.90
39849;DHT22;25518;47.878;15.914;2023-12-20T20:12:10;4.50;99.90
39849;DHT22;25518;47.878;15.914;2023-12-20T20:15:02;4.60;99.90
39849;DHT22;25518;47.878;15.914;2023-12-20T20:17:53;4.50;99.90
39849;DHT22;25518;47.878;15.914;2023-12-20T20:20:45;4.50;99.90
39849;DHT22;25518;47.878;15.914;2023-12-20T20:23:36;4.60;99.90
39849;DHT22;25518;47.878;15.914;2023-12-20T20:26:28;4.50;99.90
39849;DHT22;25518;47.878;15.914;2023-12-20T20:29:19;4.50;99.90
39849;DHT22;25518;47.878;15.914;2023-12-20T20:32:10;4.50;99.90
39849;DHT22;25518;47.878;15.914;2023-12-20T20:35:02;4.50;99.90
39849;DHT22;25518;47.878;15.914;2023-12-20T20:37:53;4.50;99.90
39849;DHT22;25518;47.878;15.914;2023-12-20T20:40:46;4.50;99.90
39849;DHT22;25518;47.878;15.914;2023-12-20T20:43:38;4.50;99.90
39849;DHT22;25518;47.878;15.914;2023-12-20T20:46:29;4.40;99.90
39849;DHT22;25518;47.878;15.914;2023-12-20T20:49:21;4.50;99.90
39849;DHT22;25518;47.878;15.914;2023-12-20T20:52:14;4.50;99.90
39849;DHT22;25518;47.878;15.914;2023-12-20T20:55:07;4.40;99.90
39849;DHT22;25518;47.878;15.914;2023-12-20T20:58:00;4.50;99.90
39849;DHT22;25518;47.878;15.914;2023-12-20T21:00:52;4.10;99.90
39849;DHT22;25518;47.878;15.914;2023-12-20T21:03:43;4.50;99.90
39849;DHT22;25518;47.878;15.914;2023-12-20T21:06:34;4.50;99.90
39849;DHT22;25518;47.878;15.914;2023-12-20T21:09:26;4.40;99.90